Current Weather

Branch County Memo Airport

Branch County Memo Airport, Michigan (KOEB)

Report from: Thursday, May 19, 2022 1:55 PM EDT
Current time: Thursday, May 19, 2022 2:06 PM EDT

Nearby weather
Weather history
Weather forecast

Temperature23.0°C (73.4°F)
Dew point16.5°C (61.7°F)
Winds 9 kts (4.6 m/s, 10.4 mph) Southwest (230°)
Visibility7 mi. (11.3 km)
Clouds Ceiling: Broken clouds 3,200 ft. (975 m)
Altimeter29.70 in.Hg (1006 mB)
Relative humidity67 %
Density altitude1,441 ft. (439 m)
Remarks Fully automated report
Automated weather observing station with precipitation discriminator
Flight conditions Visual Meteorological Conditions
Raw dataKOEB 191755Z AUTO 23009KT 7SM BKN032 23/17 A2970 RMK AO2 T02300165 10230 20113
An error has occurred. This application may no longer respond until reloaded. Reload 🗙